createdAt,value
2018-02-20T00:00:31.861Z,94.45
2018-02-20T00:02:59.434Z,94.45
2018-02-20T00:05:27.063Z,94.57
2018-02-20T00:07:54.652Z,94.59
2018-02-20T00:10:22.218Z,94.50
2018-02-20T00:12:50.124Z,94.57
2018-02-20T00:15:17.664Z,94.41
2018-02-20T00:17:45.251Z,94.39
2018-02-20T00:20:12.865Z,94.70
2018-02-20T00:22:40.429Z,94.90
2018-02-20T00:25:08.058Z,94.95
2018-02-20T00:27:35.613Z,94.95
2018-02-20T00:30:03.201Z,94.82
2018-02-20T00:32:30.758Z,94.71
2018-02-20T00:34:58.290Z,94.85
2018-02-20T00:37:25.900Z,94.71
2018-02-20T00:39:53.444Z,94.56
2018-02-20T00:42:20.937Z,94.67
2018-02-20T00:44:48.480Z,95.15
2018-02-20T00:47:16.072Z,95.45
2018-02-20T00:49:43.610Z,95.37
2018-02-20T00:52:11.135Z,95.82
2018-02-20T00:54:39.094Z,95.81
2018-02-20T00:57:06.699Z,95.97
2018-02-20T00:59:34.249Z,95.90
2018-02-20T01:02:01.895Z,95.90
2018-02-20T01:04:29.503Z,95.71
2018-02-20T01:06:57.093Z,96.12
2018-02-20T01:09:24.675Z,96.23
2018-02-20T01:11:52.188Z,96.08
2018-02-20T01:14:19.714Z,95.80
2018-02-20T01:16:47.257Z,96.05
2018-02-20T01:19:14.815Z,96.23
2018-02-20T01:21:42.406Z,96.37
2018-02-20T01:24:09.965Z,96.43
2018-02-20T01:26:37.532Z,96.31
2018-02-20T01:29:05.108Z,96.21
2018-02-20T01:31:32.653Z,96.37
2018-02-20T01:34:00.208Z,96.23
2018-02-20T01:36:29.854Z,96.01
2018-02-20T01:38:57.420Z,96.07
2018-02-20T01:41:24.956Z,96.53
2018-02-20T01:43:52.575Z,96.71
2018-02-20T01:46:20.145Z,97.00
2018-02-20T01:48:47.762Z,97.31
2018-02-20T01:51:15.322Z,97.42
2018-02-20T01:53:42.856Z,97.43
2018-02-20T01:56:10.427Z,97.55
2018-02-20T01:58:37.962Z,97.53
2018-02-20T02:01:05.519Z,97.45
2018-02-20T02:03:33.145Z,97.49
2018-02-20T02:06:00.673Z,97.72
2018-02-20T02:08:28.227Z,97.59
2018-02-20T02:10:55.781Z,97.78
2018-02-20T02:13:23.396Z,97.74
2018-02-20T02:15:51.018Z,97.58
2018-02-20T02:18:19.399Z,97.76
2018-02-20T02:20:47.011Z,97.61
2018-02-20T02:23:14.546Z,97.56
2018-02-20T02:25:42.075Z,97.50
2018-02-20T02:28:10.109Z,97.93
2018-02-20T02:30:37.707Z,98.16
2018-02-20T02:33:05.254Z,98.65
2018-02-20T02:35:32.909Z,98.84
2018-02-20T02:38:00.492Z,98.90
2018-02-20T02:40:28.034Z,98.95
2018-02-20T02:42:55.600Z,99.04
2018-02-20T02:45:23.192Z,99.06
2018-02-20T02:47:50.747Z,99.03
2018-02-20T02:50:18.349Z,99.00
2018-02-20T02:52:45.885Z,99.01
2018-02-20T02:55:13.382Z,98.86
2018-02-20T02:57:40.968Z,98.94
2018-02-20T03:00:08.530Z,98.93
2018-02-20T03:02:36.097Z,98.64
2018-02-20T03:05:03.646Z,98.63
2018-02-20T03:07:31.196Z,98.34
2018-02-20T03:09:58.835Z,98.26
2018-02-20T03:12:26.362Z,98.33
2018-02-20T03:14:53.921Z,98.36
2018-02-20T03:17:21.475Z,98.00
2018-02-20T03:19:49.026Z,98.14
2018-02-20T03:22:16.555Z,98.20
2018-02-20T03:24:44.152Z,98.33
2018-02-20T03:27:11.748Z,98.48
2018-02-20T03:29:39.303Z,98.25
2018-02-20T03:32:06.902Z,97.98
2018-02-20T03:34:34.477Z,97.83
2018-02-20T03:37:02.075Z,97.75
2018-02-20T03:39:29.604Z,97.83
2018-02-20T03:41:57.194Z,98.12
2018-02-20T03:44:24.846Z,98.64
2018-02-20T03:46:52.419Z,98.98
2018-02-20T03:49:19.979Z,99.21
2018-02-20T03:51:47.535Z,98.96
2018-02-20T03:54:15.095Z,98.99
2018-02-20T03:56:42.673Z,98.96
2018-02-20T03:59:10.284Z,99.23
2018-02-20T04:01:37.845Z,99.28
2018-02-20T04:04:05.448Z,99.40
2018-02-20T04:06:33.011Z,99.45
2018-02-20T04:09:00.570Z,99.25
2018-02-20T04:11:28.149Z,99.16
2018-02-20T04:13:55.742Z,99.27
2018-02-20T04:16:23.268Z,99.12
2018-02-20T04:18:50.832Z,99.21
2018-02-20T04:21:18.403Z,99.19
2018-02-20T04:23:45.960Z,99.15
2018-02-20T04:26:13.539Z,99.21
2018-02-20T04:28:41.073Z,99.28
2018-02-20T04:31:08.633Z,99.21
2018-02-20T04:33:36.249Z,99.23
2018-02-20T04:36:03.848Z,99.25
2018-02-20T04:38:31.420Z,99.27
2018-02-20T04:40:58.990Z,99.09
2018-02-20T04:43:26.608Z,99.08
2018-02-20T04:45:54.177Z,99.05
2018-02-20T04:48:21.759Z,98.97
2018-02-20T04:50:49.298Z,98.70
2018-02-20T04:53:16.826Z,98.41
2018-02-20T04:55:44.456Z,98.34
2018-02-20T04:58:12.010Z,98.10
2018-02-20T05:00:39.679Z,98.11
2018-02-20T05:03:07.219Z,97.84
2018-02-20T05:05:34.754Z,97.69
2018-02-20T05:08:02.312Z,97.41
2018-02-20T05:10:29.883Z,97.43
2018-02-20T05:12:57.464Z,97.36
2018-02-20T05:15:24.997Z,97.56
2018-02-20T05:17:52.566Z,96.97
2018-02-20T05:20:20.105Z,97.02
2018-02-20T05:22:47.689Z,97.04
2018-02-20T05:25:15.249Z,97.06
2018-02-20T05:27:42.850Z,97.00
2018-02-20T05:30:10.424Z,97.02
2018-02-20T05:32:38.009Z,96.97
2018-02-20T05:35:05.578Z,97.14
2018-02-20T05:37:33.153Z,97.29
2018-02-20T05:40:00.692Z,97.17
2018-02-20T05:42:28.221Z,96.85
2018-02-20T05:44:55.742Z,96.95
2018-02-20T05:47:23.237Z,96.56
2018-02-20T05:49:50.767Z,96.41
2018-02-20T05:52:18.341Z,96.42
2018-02-20T05:54:45.896Z,96.29
2018-02-20T05:57:13.540Z,96.08
2018-02-20T05:59:41.101Z,95.94
2018-02-20T06:02:08.638Z,96.09
2018-02-20T06:04:36.159Z,96.01
2018-02-20T06:07:03.744Z,96.14
2018-02-20T06:09:31.286Z,96.10
2018-02-20T06:11:58.894Z,95.95
2018-02-20T06:14:26.500Z,95.94
2018-02-20T06:16:54.063Z,96.05
2018-02-20T06:19:21.619Z,96.10
2018-02-20T06:21:49.190Z,95.97
2018-02-20T06:24:16.749Z,96.03
2018-02-20T06:26:44.336Z,96.11
2018-02-20T06:29:11.900Z,96.14
2018-02-20T06:31:39.538Z,96.06
2018-02-20T06:34:07.124Z,95.84
2018-02-20T06:36:34.728Z,95.82
2018-02-20T06:39:02.295Z,95.73
2018-02-20T06:41:29.866Z,95.73
2018-02-20T06:43:57.428Z,95.69
2018-02-20T06:46:24.989Z,95.45
2018-02-20T06:48:52.552Z,95.32
2018-02-20T06:51:20.078Z,95.32
2018-02-20T06:53:47.685Z,95.32
2018-02-20T06:56:15.280Z,95.17
2018-02-20T06:58:42.847Z,95.05
2018-02-20T07:01:10.386Z,95.13
2018-02-20T07:03:37.942Z,95.13
2018-02-20T07:06:05.501Z,95.02
2018-02-20T07:08:33.017Z,95.13
2018-02-20T07:11:00.544Z,95.15
2018-02-20T07:13:28.110Z,95.31
2018-02-20T07:15:55.653Z,95.31
2018-02-20T07:18:23.180Z,95.29
2018-02-20T07:20:50.746Z,95.30
2018-02-20T07:23:18.442Z,95.45
2018-02-20T07:25:45.994Z,95.40
2018-02-20T07:28:13.551Z,95.22
2018-02-20T07:30:41.083Z,95.46
2018-02-20T07:33:08.631Z,95.41
2018-02-20T07:35:36.188Z,95.36
2018-02-20T07:38:03.794Z,95.29
2018-02-20T07:40:31.348Z,95.31
2018-02-20T07:42:58.907Z,95.26
2018-02-20T07:45:26.464Z,95.31
2018-02-20T07:47:54.031Z,95.08
2018-02-20T07:50:21.579Z,94.89
2018-02-20T07:52:49.162Z,94.68
2018-02-20T07:55:16.772Z,94.28
2018-02-20T07:57:44.369Z,94.28
2018-02-20T08:00:11.874Z,93.72
2018-02-20T08:02:39.429Z,93.30
2018-02-20T08:05:07.005Z,92.57
2018-02-20T08:07:34.581Z,92.07
2018-02-20T08:10:02.139Z,91.95
2018-02-20T08:12:29.731Z,91.58
2018-02-20T08:14:57.351Z,90.48
2018-02-20T08:17:24.919Z,90.46
2018-02-20T08:19:52.502Z,89.03
2018-02-20T08:22:20.039Z,87.92
2018-02-20T08:24:47.602Z,88.28
2018-02-20T08:27:15.125Z,87.04
2018-02-20T08:29:42.674Z,84.81
2018-02-20T08:32:10.202Z,82.49
2018-02-20T08:34:37.737Z,83.44
2018-02-20T08:37:05.285Z,83.41
2018-02-20T08:39:32.840Z,80.87
2018-02-20T08:42:00.468Z,80.86
2018-02-20T08:44:28.058Z,83.61
2018-02-20T08:46:55.595Z,82.97
2018-02-20T08:49:23.169Z,81.34
2018-02-20T08:51:50.711Z,80.51
2018-02-20T08:54:18.251Z,77.40
2018-02-20T08:56:45.755Z,78.93
2018-02-20T08:59:13.315Z,79.21
2018-02-20T09:01:40.841Z,80.67
2018-02-20T09:04:08.365Z,77.95
2018-02-20T09:06:35.969Z,77.18
2018-02-20T09:09:03.526Z,75.73
2018-02-20T09:11:31.048Z,77.40
2018-02-20T09:13:58.591Z,77.72
2018-02-20T09:16:26.135Z,74.98
2018-02-20T09:18:53.688Z,71.09
2018-02-20T09:21:21.257Z,76.83
2018-02-20T09:23:48.793Z,77.43
2018-02-20T09:26:16.398Z,77.11
2018-02-20T09:28:43.921Z,74.78
2018-02-20T09:31:11.468Z,74.43
2018-02-20T09:33:38.965Z,74.87
2018-02-20T09:36:06.545Z,75.69
2018-02-20T09:38:34.085Z,76.26
2018-02-20T09:41:01.619Z,75.56
2018-02-20T09:43:29.140Z,74.53
2018-02-20T09:45:56.787Z,72.87
2018-02-20T09:48:24.332Z,69.93
2018-02-20T09:50:51.925Z,74.75
2018-02-20T09:53:19.471Z,74.25
2018-02-20T09:55:47.013Z,73.08
2018-02-20T09:58:14.586Z,74.03
2018-02-20T10:00:42.140Z,75.04
2018-02-20T10:03:09.696Z,71.02
2018-02-20T10:05:37.237Z,71.19
2018-02-20T10:08:04.795Z,73.52
2018-02-20T10:10:32.329Z,77.07
2018-02-20T10:12:59.891Z,77.24
2018-02-20T10:15:27.559Z,76.38
2018-02-20T10:17:55.072Z,76.40
2018-02-20T10:20:22.683Z,75.87
2018-02-20T10:22:50.240Z,75.10
2018-02-20T10:25:17.740Z,73.85
2018-02-20T10:27:45.309Z,76.08
2018-02-20T10:30:12.906Z,77.83
2018-02-20T10:32:40.519Z,77.73
2018-02-20T10:35:08.091Z,78.61
2018-02-20T10:37:35.668Z,78.34
2018-02-20T10:40:03.232Z,78.61
2018-02-20T10:42:30.774Z,78.83
2018-02-20T10:44:58.324Z,78.90
2018-02-20T10:47:25.858Z,78.91
2018-02-20T10:49:53.419Z,78.89
2018-02-20T10:52:20.972Z,79.48
2018-02-20T10:54:48.539Z,79.78
2018-02-20T10:57:16.060Z,80.07
2018-02-20T10:59:43.609Z,78.29
2018-02-20T11:02:11.151Z,77.73
2018-02-20T11:04:38.705Z,77.95
2018-02-20T11:07:06.267Z,77.94
2018-02-20T11:09:33.811Z,76.72
2018-02-20T11:12:01.547Z,77.96
2018-02-20T11:14:29.068Z,78.97
2018-02-20T11:16:56.580Z,78.93
2018-02-20T11:19:24.151Z,79.07
2018-02-20T11:21:51.673Z,78.41
2018-02-20T11:24:19.201Z,78.46
2018-02-20T11:26:46.752Z,78.55
2018-02-20T11:29:14.326Z,78.35
2018-02-20T11:31:41.968Z,77.52
2018-02-20T11:34:09.492Z,77.21
2018-02-20T11:36:37.008Z,77.60
2018-02-20T11:39:04.693Z,77.40
2018-02-20T11:41:32.214Z,77.64
2018-02-20T11:43:59.724Z,77.89
2018-02-20T11:46:27.250Z,77.23
2018-02-20T11:48:54.792Z,77.02
2018-02-20T11:51:22.329Z,76.93
2018-02-20T11:53:49.976Z,78.89
2018-02-20T11:56:17.542Z,78.96
2018-02-20T11:58:45.079Z,79.21
2018-02-20T12:01:12.650Z,78.36
2018-02-20T12:03:40.193Z,79.20
2018-02-20T12:06:07.853Z,79.47
2018-02-20T12:08:35.441Z,79.71
2018-02-20T12:11:03.010Z,79.59
2018-02-20T12:13:30.546Z,78.99
2018-02-20T12:15:58.095Z,78.49
2018-02-20T12:18:25.658Z,78.47
2018-02-20T12:20:53.238Z,77.82
2018-02-20T12:23:20.816Z,77.05
2018-02-20T12:25:48.334Z,76.81
2018-02-20T12:28:15.978Z,76.81
2018-02-20T12:30:43.550Z,77.65
2018-02-20T12:33:11.118Z,77.22
2018-02-20T12:35:38.684Z,74.66
2018-02-20T12:38:06.228Z,74.53
2018-02-20T12:40:33.769Z,75.82
2018-02-20T12:43:01.343Z,76.17
2018-02-20T12:45:28.861Z,77.10
2018-02-20T12:47:56.438Z,76.78
2018-02-20T12:50:23.962Z,76.19
2018-02-20T12:52:51.508Z,75.49
2018-02-20T12:55:19.086Z,75.82
2018-02-20T12:57:46.645Z,75.50
2018-02-20T13:00:14.197Z,75.69
2018-02-20T13:02:41.738Z,75.89
2018-02-20T13:05:09.307Z,75.75
2018-02-20T13:07:36.890Z,76.13
2018-02-20T13:10:04.449Z,76.35
2018-02-20T13:12:32.033Z,77.28
2018-02-20T13:14:59.637Z,76.83
2018-02-20T13:17:27.154Z,77.10
2018-02-20T13:19:54.735Z,77.56
2018-02-20T13:22:22.295Z,77.04
2018-02-20T13:24:49.904Z,77.96
2018-02-20T13:27:17.433Z,77.62
2018-02-20T13:29:44.978Z,77.56
2018-02-20T13:32:12.541Z,76.37
2018-02-20T13:34:40.115Z,75.55
2018-02-20T13:37:07.672Z,75.21
2018-02-20T13:39:35.221Z,75.61
2018-02-20T13:42:02.749Z,75.17
2018-02-20T13:44:30.362Z,76.74
2018-02-20T13:46:58.003Z,77.14
2018-02-20T13:49:25.543Z,77.44
2018-02-20T13:51:53.071Z,77.49
2018-02-20T13:54:20.634Z,77.60
2018-02-20T13:56:48.165Z,78.12
2018-02-20T13:59:15.710Z,78.03
2018-02-20T14:01:43.262Z,78.17
2018-02-20T14:04:11.621Z,77.98
2018-02-20T14:06:39.215Z,77.70
2018-02-20T14:09:06.737Z,77.61
2018-02-20T14:11:34.305Z,77.48
2018-02-20T14:14:01.841Z,77.60
2018-02-20T14:16:29.396Z,77.26
2018-02-20T14:18:56.914Z,77.20
2018-02-20T14:21:24.466Z,77.05
2018-02-20T14:23:52.003Z,76.72
2018-02-20T14:26:19.510Z,76.61
2018-02-20T14:28:47.033Z,76.32
2018-02-20T14:31:16.590Z,76.47
2018-02-20T14:33:44.122Z,76.05
2018-02-20T14:36:11.661Z,76.35
2018-02-20T14:38:39.290Z,75.79
2018-02-20T14:41:06.847Z,75.46
2018-02-20T14:43:34.398Z,75.99
2018-02-20T14:46:01.964Z,75.95
2018-02-20T14:48:29.583Z,76.45
2018-02-20T14:50:57.237Z,76.33
2018-02-20T14:53:24.756Z,76.59
2018-02-20T14:55:52.396Z,76.65
2018-02-20T14:58:20.193Z,77.00
2018-02-20T15:00:48.897Z,77.22
2018-02-20T15:03:16.720Z,77.44
2018-02-20T15:05:44.473Z,77.49
2018-02-20T15:08:12.254Z,77.61
2018-02-20T15:10:39.919Z,77.62
2018-02-20T15:13:07.791Z,77.45
2018-02-20T15:15:35.692Z,77.58
2018-02-20T15:18:03.537Z,77.37
2018-02-20T15:20:31.442Z,77.37
2018-02-20T15:22:59.266Z,77.10
2018-02-20T15:25:27.079Z,77.23
2018-02-20T15:27:54.944Z,77.44
2018-02-20T15:30:22.840Z,77.44
2018-02-20T15:32:50.607Z,77.42
2018-02-20T15:35:18.483Z,77.11
2018-02-20T15:37:46.299Z,77.18
2018-02-20T15:40:14.026Z,77.12
2018-02-20T15:42:41.793Z,77.43
2018-02-20T15:45:09.593Z,77.52
2018-02-20T15:47:37.481Z,77.49
2018-02-20T15:50:05.307Z,77.84
2018-02-20T15:52:33.070Z,77.91
2018-02-20T15:55:00.648Z,77.81
2018-02-20T15:57:28.210Z,77.81
2018-02-20T15:59:55.768Z,77.98
2018-02-20T16:02:23.312Z,78.11
2018-02-20T16:04:50.862Z,78.25
2018-02-20T16:07:18.384Z,78.57
2018-02-20T16:09:45.886Z,78.79
2018-02-20T16:12:13.413Z,79.15
2018-02-20T16:14:40.957Z,79.55
2018-02-20T16:17:08.453Z,79.79
2018-02-20T16:19:35.977Z,79.94
2018-02-20T16:22:03.627Z,80.28
2018-02-20T16:24:31.146Z,80.79
2018-02-20T16:26:58.691Z,81.10
2018-02-20T16:29:26.266Z,81.29
2018-02-20T16:31:53.793Z,81.60
2018-02-20T16:34:21.349Z,81.68
2018-02-20T16:36:48.933Z,82.03
2018-02-20T16:39:16.600Z,82.08
2018-02-20T16:41:44.160Z,82.30
2018-02-20T16:44:11.709Z,82.45
2018-02-20T16:46:39.332Z,82.68
2018-02-20T16:49:06.909Z,82.93
2018-02-20T16:51:34.446Z,83.09
2018-02-20T16:54:02.008Z,83.18
2018-02-20T16:56:29.662Z,83.33
2018-02-20T16:58:57.276Z,83.66
2018-02-20T17:01:24.823Z,83.86
2018-02-20T17:03:52.385Z,84.06
2018-02-20T17:06:20.003Z,83.53
2018-02-20T17:08:47.560Z,83.76
2018-02-20T17:11:15.082Z,84.24
2018-02-20T17:13:42.655Z,84.13
2018-02-20T17:16:10.207Z,84.44
2018-02-20T17:18:37.801Z,84.80
2018-02-20T17:21:05.355Z,85.05
2018-02-20T17:23:33.101Z,85.10
2018-02-20T17:26:00.629Z,85.25
2018-02-20T17:28:28.140Z,85.17
2018-02-20T17:30:55.677Z,85.30
2018-02-20T17:33:23.199Z,85.63
2018-02-20T17:35:50.738Z,86.00
2018-02-20T17:38:18.336Z,86.10
2018-02-20T17:40:45.882Z,86.05
2018-02-20T17:43:13.442Z,86.09
2018-02-20T17:45:41.136Z,86.27
2018-02-20T17:48:08.749Z,86.20
2018-02-20T17:50:36.709Z,86.54
2018-02-20T17:53:04.272Z,86.67
2018-02-20T17:55:31.919Z,86.46
2018-02-20T17:57:59.492Z,86.71
2018-02-20T18:00:27.066Z,86.85
2018-02-20T18:02:54.672Z,87.01
2018-02-20T18:05:22.231Z,87.29
2018-02-20T18:07:49.775Z,87.24
2018-02-20T18:10:17.295Z,87.16
2018-02-20T18:12:44.859Z,87.21
2018-02-20T18:15:12.478Z,87.35
2018-02-20T18:17:40.026Z,87.26
2018-02-20T18:20:07.644Z,87.39
2018-02-20T18:22:35.243Z,87.35
2018-02-20T18:25:02.804Z,87.47
2018-02-20T18:27:30.361Z,87.49
2018-02-20T18:29:57.919Z,87.50
2018-02-20T18:32:27.287Z,87.29
2018-02-20T18:34:54.822Z,87.16
2018-02-20T18:37:22.388Z,87.29
2018-02-20T18:39:49.944Z,87.64
2018-02-20T18:42:17.504Z,87.96
2018-02-20T18:44:45.120Z,88.01
2018-02-20T18:47:12.723Z,88.18
2018-02-20T18:49:40.428Z,88.40
2018-02-20T18:52:07.993Z,88.21
2018-02-20T18:54:35.552Z,88.35
2018-02-20T18:57:03.110Z,88.68
2018-02-20T18:59:30.746Z,88.69
2018-02-20T19:01:58.279Z,88.95
2018-02-20T19:04:25.805Z,88.87
2018-02-20T19:06:53.349Z,89.00
2018-02-20T19:09:20.916Z,88.82
2018-02-20T19:11:48.509Z,88.93
2018-02-20T19:14:16.176Z,89.17
2018-02-20T19:16:43.759Z,89.07
2018-02-20T19:19:11.326Z,89.07
2018-02-20T19:21:38.877Z,89.24
2018-02-20T19:24:06.404Z,89.30
2018-02-20T19:26:33.941Z,89.53
2018-02-20T19:29:01.479Z,89.63
2018-02-20T19:31:29.048Z,89.83
2018-02-20T19:33:56.583Z,89.67
2018-02-20T19:36:24.132Z,90.00
2018-02-20T19:38:51.772Z,90.06
2018-02-20T19:41:19.321Z,89.93
2018-02-20T19:43:46.914Z,89.92
2018-02-20T19:46:14.590Z,90.38
2018-02-20T19:48:42.120Z,90.37
2018-02-20T19:51:09.676Z,90.61
2018-02-20T19:53:37.230Z,90.71
2018-02-20T19:56:04.786Z,90.86
2018-02-20T19:58:32.486Z,90.92
2018-02-20T20:01:00.022Z,91.00
2018-02-20T20:03:27.588Z,91.04
2018-02-20T20:05:55.284Z,91.24
2018-02-20T20:08:22.797Z,91.05
2018-02-20T20:10:50.337Z,91.18
2018-02-20T20:13:17.864Z,91.12
2018-02-20T20:15:45.422Z,91.00
2018-02-20T20:18:12.986Z,91.04
2018-02-20T20:20:47.935Z,91.16
2018-02-20T20:23:08.203Z,91.10
2018-02-20T20:25:36.374Z,91.11
2018-02-20T20:28:03.987Z,91.17
2018-02-20T20:30:31.562Z,91.46
2018-02-20T20:32:59.069Z,91.49
2018-02-20T20:35:26.680Z,91.61
2018-02-20T20:37:54.207Z,91.54
2018-02-20T20:40:21.775Z,91.69
2018-02-20T20:42:49.488Z,91.57
2018-02-20T20:45:17.051Z,91.51
2018-02-20T20:47:44.795Z,91.49
2018-02-20T20:50:12.588Z,91.59
2018-02-20T20:52:40.341Z,91.39
2018-02-20T20:55:07.905Z,91.68
2018-02-20T20:57:35.993Z,91.58
2018-02-20T21:00:03.640Z,91.59
2018-02-20T21:02:31.366Z,91.74
2018-02-20T21:04:59.867Z,91.49
2018-02-20T21:07:27.405Z,91.43
2018-02-20T21:09:54.974Z,91.38
2018-02-20T21:12:22.993Z,91.29
2018-02-20T21:14:50.771Z,91.22
2018-02-20T21:17:18.504Z,91.20
2018-02-20T21:19:46.113Z,91.19
2018-02-20T21:22:13.696Z,91.20
2018-02-20T21:24:42.356Z,91.29
2018-02-20T21:27:09.967Z,91.19
2018-02-20T21:29:37.654Z,91.42
2018-02-20T21:32:05.371Z,91.57
2018-02-20T21:34:32.965Z,91.71
2018-02-20T21:37:00.566Z,91.79
2018-02-20T21:39:28.149Z,91.82
2018-02-20T21:41:55.861Z,91.86
2018-02-20T21:44:23.485Z,92.03
2018-02-20T21:46:51.430Z,91.94
2018-02-20T21:49:19.406Z,92.01
2018-02-20T21:51:46.982Z,92.02
2018-02-20T21:54:14.641Z,92.09
2018-02-20T21:56:42.411Z,92.21
2018-02-20T21:59:09.970Z,92.30
2018-02-20T22:01:37.579Z,92.16
2018-02-20T22:04:05.109Z,92.08
2018-02-20T22:06:32.620Z,92.10
2018-02-20T22:09:00.213Z,91.76
2018-02-20T22:11:27.739Z,91.71
2018-02-20T22:13:55.431Z,91.58
2018-02-20T22:16:23.536Z,91.32
2018-02-20T22:18:51.093Z,91.12
2018-02-20T22:21:18.816Z,91.25
2018-02-20T22:23:46.429Z,91.25
2018-02-20T22:26:14.060Z,90.96
2018-02-20T22:28:41.669Z,91.03
2018-02-20T22:31:09.211Z,90.83
2018-02-20T22:33:36.876Z,90.68
2018-02-20T22:36:04.431Z,90.49
2018-02-20T22:38:31.987Z,90.62
2018-02-20T22:40:59.551Z,90.48
2018-02-20T22:43:27.118Z,90.47
2018-02-20T22:45:54.665Z,90.58
2018-02-20T22:48:22.225Z,90.49
2018-02-20T22:50:49.794Z,90.26
2018-02-20T22:53:17.456Z,90.29
2018-02-20T22:55:45.003Z,90.22
2018-02-20T22:58:12.580Z,90.22
2018-02-20T23:00:40.122Z,90.28
2018-02-20T23:03:07.673Z,90.33
2018-02-20T23:05:35.346Z,90.45
2018-02-20T23:08:02.919Z,90.23
2018-02-20T23:10:30.896Z,90.29
2018-02-20T23:12:58.505Z,90.55
2018-02-20T23:15:26.061Z,90.83
2018-02-20T23:17:53.610Z,90.95
2018-02-20T23:20:21.245Z,91.06
2018-02-20T23:22:48.904Z,91.14
2018-02-20T23:25:16.446Z,91.28
2018-02-20T23:27:43.987Z,91.51
2018-02-20T23:30:11.581Z,91.50
2018-02-20T23:32:39.147Z,91.52
2018-02-20T23:35:06.776Z,91.35
2018-02-20T23:37:34.370Z,91.30
2018-02-20T23:40:02.070Z,91.48
2018-02-20T23:42:29.791Z,91.31
2018-02-20T23:44:57.384Z,91.17
2018-02-20T23:47:24.975Z,90.87
2018-02-20T23:49:52.554Z,90.75
2018-02-20T23:52:22.225Z,90.85
2018-02-20T23:54:49.983Z,90.94
2018-02-20T23:57:17.563Z,90.99
2018-02-20T23:59:51.982Z,90.98
